Impacts METAR Board
IDs:

KSAN - San Diego Intl Arpt, CA, US

Updated at: 2100 UTC 15 Jun 2019
Potential Impact None Slight Moderate High
Time 15/09Z 15/10Z 15/11Z 15/12Z 15/13Z 15/14Z 15/15Z 15/16Z 15/17Z 15/18Z 15/19Z 15/20Z 15/21Z
Temp64 64 64 64 64 65 65 64 65 67 69 69 69
Dewpt56 56 55 55 55 55 56 56 57 56 56 56 56
Altim29.95 29.95 29.95 29.94 29.95 29.97 29.98 29.98 29.98 29.97 29.97 29.96 29.95
VIS10 10 10 10 10 10 10 10 10 10 10 10 10
CIG18 19 21 19 18 19 18 18 19 22 23 21 19
CoverOVCOVCOVCOVCOVCOVCOVCOVCOVCBKNBKNBKNBKN
FltCatMVFRMVFRMVFRMVFRMVFRMVFRMVFRMVFRMVFRMVFRMVFRMVFRMVFR
WX--------------------------
WDir210170200180000230230220230240250
WSpd5 4 5 6 0 0 3 4 5 5 9 8 8
WGst-- -- -- -- -- -- -- -- -- -- -- -- --
Raw hourly METARs
KSAN 150851Z 21005KT 10SM OVC018 18/13 A2995 RMK AO2 SLP141 T01780133 56006
KSAN 150951Z 17004KT 10SM OVC019 18/13 A2995 RMK AO2 SLP140 T01780133
KSAN 151051Z 20005KT 10SM OVC021 18/13 A2995 RMK AO2 SLP140 T01780128
KSAN 151151Z 18006KT 10SM OVC019 18/13 A2994 RMK AO2 SLP139 T01780128 10183 20178 56002
KSAN 151251Z 00000KT 10SM OVC018 18/13 A2995 RMK AO2 SLP142 T01780128
KSAN 151351Z 00000KT 10SM OVC019 18/13 A2997 RMK AO2 SLP147 T01830128
KSAN 151451Z VRB03KT 10SM OVC018 18/13 A2998 RMK AO2 SLP152 T01830133 53012
KSAN 151551Z 23004KT 10SM OVC018 18/13 A2998 RMK AO2 SLP152 T01780133
KSAN 151651Z 23005KT 10SM OVC019 18/14 A2998 RMK AO2 SLP150 T01830139
KSAN 151751Z 22005KT 10SM BKN022 19/13 A2997 RMK AO2 SLP148 T01940133 10194 20178 58003
KSAN 151851Z 23009KT 10SM BKN023 21/13 A2997 RMK AO2 SLP147 T02060133
KSAN 151951Z 24008KT 10SM BKN021 21/13 A2996 RMK AO2 SLP143 T02060133
KSAN 152051Z 25008KT 10SM BKN019 21/13 A2995 RMK AO2 SLP142 T02060133 58006



Page loaded:  21:05 UTC  |   02:05 PM Pacific  |   03:05 PM Mountain  |   04:05 PM Central  |   05:05 PM Eastern

 

ADVISORIES

FORECASTS

FORECASTS

OBSERVATIONS

USER TOOLS

ABOUT US